Time;durP1;ratioP1;P1;durP2;ratioP2;P2;SDS_P1;SDS_P2;PMS_P1;PMS_P2;Temp;Humidity;BMP_temperature;BMP_pressure;BME280_temperature;BME280_humidity;BME280_pressure;Samples;Min_cycle;Max_cycle;Signal;HPM_P1;HPM_P2
2023/05/29 00:01:35;;;;;;;9.73;4.40;;;;;;;;;;5076628;28;20374;-69
2023/05/29 00:04:02;;;;;;;7.18;4.28;;;;;;;;;;5070563;28;20025;-69
2023/05/29 00:06:29;;;;;;;8.18;4.38;;;;;;;;;;5072067;28;20043;-69
2023/05/29 00:08:55;;;;;;;10.40;4.20;;;;;;;;;;5071299;28;20020;-69
2023/05/29 00:11:21;;;;;;;7.97;4.45;;;;;;;;;;5070550;28;20025;-68
2023/05/29 00:13:47;;;;;;;7.68;4.05;;;;;;;;;;5071183;28;20024;-71
2023/05/29 00:16:13;;;;;;;9.85;4.70;;;;;;;;;;5072542;28;20074;-70
2023/05/29 00:18:45;;;;;;;7.53;4.43;;;;;;;;;;5071381;28;20104;-68
2023/05/29 00:21:10;;;;;;;6.65;4.53;;;;;;;;;;5068156;28;20029;-68
2023/05/29 00:23:36;;;;;;;9.63;5.43;;;;;;;;;;5071173;28;20025;-69
2023/05/29 00:26:02;;;;;;;8.75;4.72;;;;;;;;;;5070865;28;20024;-68
2023/05/29 00:28:28;;;;;;;7.90;4.82;;;;;;;;;;5076706;28;20527;-69
2023/05/29 00:30:54;;;;;;;9.43;5.15;;;;;;;;;;5079913;28;20031;-69
2023/05/29 00:33:20;;;;;;;7.05;4.60;;;;;;;;;;5069994;28;20020;-69
2023/05/29 00:35:46;;;;;;;10.15;5.65;;;;;;;;;;5071823;28;20033;-68
2023/05/29 00:38:12;;;;;;;8.63;5.15;;;;;;;;;;5067664;28;20024;-69
2023/05/29 00:40:40;;;;;;;8.68;4.68;;;;;;;;;;5062128;28;20029;-68
2023/05/29 00:43:06;;;;;;;9.07;5.35;;;;;;;;;;5070590;28;20016;-68
2023/05/29 00:45:36;;;;;;;10.93;5.43;;;;;;;;;;5071692;28;20020;-68
2023/05/29 00:48:02;;;;;;;8.77;4.88;;;;;;;;;;5057359;28;20493;-68
2023/05/29 00:50:28;;;;;;;10.18;4.75;;;;;;;;;;5074381;28;20046;-69
2023/05/29 00:52:54;;;;;;;9.90;5.28;;;;;;;;;;5075570;28;20103;-69
2023/05/29 00:55:20;;;;;;;8.32;5.68;;;14.00;95.80;;;;;;5074870;28;20470;-69
2023/05/29 00:57:47;;;;;;;9.38;5.28;;;13.90;96.40;;;;;;5071050;28;20103;-69
2023/05/29 01:00:14;;;;;;;10.80;5.47;;;13.90;96.80;;;;;;5074220;28;20028;-69
2023/05/29 01:02:44;;;;;;;14.32;5.43;;;13.90;97.00;;;;;;5075251;28;20024;-68
2023/05/29 01:05:11;;;;;;;8.75;5.38;;;13.80;97.50;;;;;;5073349;28;20028;-68
2023/05/29 01:07:37;;;;;;;9.27;5.20;;;13.80;97.70;;;;;;5076571;28;20135;-68
2023/05/29 01:10:03;;;;;;;8.98;5.13;;;13.70;97.90;;;;;;5066555;28;20544;-68
2023/05/29 01:12:59;;;;;;;8.95;5.10;;;13.70;98.30;;;;;;5075026;28;20546;-68
2023/05/29 01:15:46;;;;;;;10.18;5.03;;;13.60;98.70;;;;;;5075245;28;20128;-69
2023/05/29 01:18:49;;;;;;;8.82;4.60;;;13.60;99.10;;;;;;5055091;28;20393;-68
2023/05/29 01:21:33;;;;;;;7.05;4.10;;;13.60;99.20;;;;;;5074729;28;20583;-68
2023/05/29 01:24:08;;;;;;;8.40;5.43;;;13.60;99.50;;;;;;5080098;28;20070;-68
2023/05/29 01:26:55;;;;;;;8.88;4.72;;;13.60;99.70;;;;;;5073573;28;20025;-69
2023/05/29 01:29:31;;;;;;;9.75;5.03;;;13.50;99.90;;;;;;5086696;28;20099;-69
2023/05/29 01:31:58;;;;;;;10.32;5.25;;;13.50;99.90;;;;;;5074519;28;20036;-68
2023/05/29 01:34:23;;;;;;;8.43;5.25;;;13.50;99.90;;;;;;5073334;28;20039;-68
2023/05/29 01:36:49;;;;;;;11.95;4.75;;;13.50;99.90;;;;;;5074370;28;20385;-68
2023/05/29 01:39:15;;;;;;;6.85;4.63;;;13.40;99.90;;;;;;5077951;28;20479;-68
2023/05/29 01:41:45;;;;;;;8.35;5.05;;;13.40;99.90;;;;;;5077716;28;20095;-68
2023/05/29 01:44:12;;;;;;;9.55;5.28;;;13.40;99.90;;;;;;5077831;28;20027;-68
2023/05/29 01:46:39;;;;;;;6.15;4.22;;;13.30;99.90;;;;;;5082944;28;20044;-68
2023/05/29 01:49:05;;;;;;;7.85;4.57;;;13.30;99.90;;;;;;5079785;28;20028;-68
2023/05/29 01:51:31;;;;;;;7.80;4.57;;;13.20;99.90;;;;;;5078451;28;20043;-68
2023/05/29 01:53:58;;;;;;;7.43;4.63;;;13.20;99.90;;;;;;5080918;28;20024;-68
2023/05/29 01:56:26;;;;;;;10.18;5.07;;;13.10;99.90;;;;;;5080209;28;20040;-68
2023/05/29 01:58:53;;;;;;;13.38;6.00;;;13.10;99.90;;;;;;5077045;28;20028;-68
2023/05/29 02:01:20;;;;;;;9.57;5.05;;;13.10;99.90;;;;;;5076343;28;20116;-69
2023/05/29 02:03:46;;;;;;;10.48;4.85;;;13.00;99.90;;;;;;5081290;28;20039;-69
2023/05/29 02:06:11;;;;;;;9.52;4.80;;;13.00;99.90;;;;;;5077923;28;20110;-68
2023/05/29 02:08:37;;;;;;;10.07;5.40;;;13.00;99.90;;;;;;5080904;28;20033;-68
2023/05/29 02:11:03;;;;;;;11.55;4.55;;;13.00;99.90;;;;;;5076660;28;20462;-69
2023/05/29 02:13:28;;;;;;;10.80;5.15;;;13.00;99.90;;;;;;5075316;28;20151;-68
2023/05/29 02:15:54;;;;;;;8.27;4.95;;;12.90;99.90;;;;;;5074087;28;20113;-68
2023/05/29 02:18:20;;;;;;;8.45;4.93;;;12.90;99.90;;;;;;5064136;28;20476;-68
2023/05/29 02:20:46;;;;;;;9.60;4.82;;;12.90;99.90;;;;;;5073859;28;20055;-68
2023/05/29 02:23:12;;;;;;;9.52;4.68;;;12.80;99.90;;;;;;5072706;28;20112;-69
2023/05/29 02:25:38;;;;;;;8.50;4.97;;;12.80;99.90;;;;;;5072020;28;20186;-68
2023/05/29 02:28:04;;;;;;;8.45;4.53;;;12.80;99.90;;;;;;5082211;28;20039;-69
2023/05/29 02:30:30;;;;;;;7.68;4.55;;;12.80;99.90;;;;;;5072456;28;20044;-69
2023/05/29 02:32:56;;;;;;;7.93;4.55;;;12.80;99.90;;;;;;5060058;28;20370;-68
2023/05/29 02:35:22;;;;;;;8.43;4.97;;;12.80;99.90;;;;;;5066964;28;20052;-69
2023/05/29 02:37:51;;;;;;;8.20;5.15;;;12.80;99.90;;;;;;5072429;28;20035;-69
2023/05/29 02:40:17;;;;;;;10.88;5.15;;;12.70;99.90;;;;;;5072257;28;20335;-69
2023/05/29 02:42:43;;;;;;;8.75;5.45;;;12.70;99.90;;;;;;5073705;28;20028;-69
2023/05/29 02:45:09;;;;;;;9.15;4.80;;;12.70;99.90;;;;;;5072393;28;20032;-68
2023/05/29 02:47:36;;;;;;;9.15;5.05;;;12.70;99.90;;;;;;5066945;28;20033;-68
2023/05/29 02:50:02;;;;;;;10.30;4.55;;;12.70;99.90;;;;;;5075860;27;20044;-68
2023/05/29 02:52:29;;;;;;;8.13;4.68;;;12.60;99.90;;;;;;5078468;28;20111;-68
2023/05/29 02:54:55;;;;;;;8.77;4.88;;;12.60;99.90;;;;;;5072549;28;20035;-68
2023/05/29 02:57:21;;;;;;;7.93;4.40;;;12.60;99.90;;;;;;5071673;28;20385;-69
2023/05/29 02:59:47;;;;;;;9.30;5.05;;;12.50;99.90;;;;;;5072597;28;20025;-69
2023/05/29 03:02:12;;;;;;;7.15;4.20;;;12.50;99.90;;;;;;5070790;28;20078;-68
2023/05/29 03:04:38;;;;;;;8.93;4.93;;;12.50;99.90;;;;;;5061270;28;20029;-68
2023/05/29 03:07:04;;;;;;;8.98;4.95;;;12.40;99.90;;;;;;5072008;28;20032;-69
2023/05/29 03:09:29;;;;;;;7.32;4.50;;;12.40;99.90;;;;;;5060865;28;20550;-68
2023/05/29 03:11:55;;;;;;;7.60;4.38;;;12.40;99.90;;;;;;5072675;28;20107;-67
2023/05/29 03:14:21;;;;;;;10.52;5.03;;;12.40;99.90;;;;;;5072065;28;20032;-69
2023/05/29 03:16:47;;;;;;;8.88;4.72;;;12.30;99.90;;;;;;5071543;28;20029;-68
2023/05/29 03:19:13;;;;;;;9.85;4.57;;;12.30;99.90;;;;;;5070879;28;20036;-71
2023/05/29 03:21:38;;;;;;;9.88;4.63;;;12.30;99.90;;;;;;5083409;28;20431;-68
2023/05/29 03:24:05;;;;;;;10.20;5.05;;;12.20;99.90;;;;;;5071659;28;20036;-69
2023/05/29 03:26:30;;;;;;;8.20;4.78;;;12.20;99.90;;;;;;5072188;28;20059;-68
2023/05/29 03:28:56;;;;;;;9.07;4.78;;;12.20;99.90;;;;;;5076983;28;20370;-68
2023/05/29 03:31:22;;;;;;;9.55;5.25;;;12.10;99.90;;;;;;5071957;28;20161;-68
2023/05/29 03:33:49;;;;;;;8.30;5.07;;;12.10;99.90;;;;;;5071380;28;20025;-67
2023/05/29 03:36:16;;;;;;;10.60;5.15;;;12.10;99.90;;;;;;5070502;28;20782;-68
2023/05/29 03:38:42;;;;;;;8.70;4.68;;;12.10;99.90;;;;;;5059787;28;20486;-68
2023/05/29 03:41:08;;;;;;;7.32;4.75;;;12.10;99.90;;;;;;5071116;28;20021;-68
2023/05/29 03:43:33;;;;;;;10.23;5.60;;;12.00;99.90;;;;;;5071622;28;20359;-69
2023/05/29 03:45:59;;;;;;;7.75;4.43;;;12.00;99.90;;;;;;5071545;28;20111;-69
2023/05/29 03:48:25;;;;;;;9.13;4.80;;;11.90;99.90;;;;;;5066836;28;20029;-69
2023/05/29 03:50:50;;;;;;;9.43;4.93;;;11.90;99.90;;;;;;5071976;28;20044;-69
2023/05/29 03:53:16;;;;;;;9.43;5.10;;;11.90;99.90;;;;;;5074709;28;20035;-69
2023/05/29 03:55:41;;;;;;;8.23;4.40;;;11.90;99.90;;;;;;5076753;28;20021;-69
2023/05/29 03:58:07;;;;;;;7.95;4.82;;;11.90;99.90;;;;;;5058371;28;20037;-69
2023/05/29 04:00:33;;;;;;;8.07;4.70;;;12.00;99.90;;;;;;5083483;28;20381;-69
2023/05/29 04:02:58;;;;;;;6.10;4.20;;;12.00;99.90;;;;;;5071202;28;20035;-69
2023/05/29 04:05:25;;;;;;;7.03;4.20;;;12.00;99.90;;;;;;5071784;28;20402;-69
2023/05/29 04:07:51;;;;;;;9.00;4.93;;;12.00;99.90;;;;;;5064391;28;20032;-69
2023/05/29 04:10:16;;;;;;;5.65;4.15;;;11.90;99.90;;;;;;5076000;28;20024;-69
2023/05/29 04:12:42;;;;;;;8.07;4.45;;;12.00;99.90;;;;;;5071862;28;20032;-69
2023/05/29 04:15:08;;;;;;;4.90;3.70;;;12.00;99.90;;;;;;5070582;28;20373;-69
2023/05/29 04:17:34;;;;;;;7.38;4.88;;;12.00;99.90;;;;;;5067828;28;20382;-70
2023/05/29 04:20:05;;;;;;;8.38;5.13;;;12.00;99.90;;;;;;5065194;28;20037;-69
2023/05/29 04:22:31;;;;;;;6.53;4.38;;;12.00;99.90;;;;;;5071912;28;20035;-69
2023/05/29 04:24:57;;;;;;;9.50;4.68;;;12.10;99.90;;;;;;5071720;28;20020;-69
2023/05/29 04:27:22;;;;;;;8.65;4.72;;;12.10;99.90;;;;;;5070521;28;20028;-70
2023/05/29 04:29:48;;;;;;;9.70;4.25;;;12.20;99.90;;;;;;5085151;28;20028;-69
2023/05/29 04:32:13;;;;;;;8.05;4.65;;;12.20;99.90;;;;;;5070914;28;20381;-69
2023/05/29 04:34:39;;;;;;;8.13;4.72;;;12.30;99.90;;;;;;5071195;28;20036;-69
2023/05/29 04:37:05;;;;;;;7.93;4.88;;;12.40;99.90;;;;;;5070543;28;20020;-69
2023/05/29 04:39:32;;;;;;;8.13;4.88;;;12.50;99.90;;;;;;5065973;28;20400;-69
2023/05/29 04:42:01;;;;;;;7.47;4.85;;;12.50;99.90;;;;;;5075372;28;20028;-69
2023/05/29 04:44:26;;;;;;;7.70;4.65;;;12.60;99.90;;;;;;5074439;28;20051;-68
2023/05/29 04:46:53;;;;;;;7.82;5.07;;;12.70;99.90;;;;;;5067683;28;20033;-69
2023/05/29 04:49:20;;;;;;;7.30;4.25;;;12.80;99.90;;;;;;5069484;28;20038;-69
2023/05/29 04:51:46;;;;;;;7.20;5.00;;;12.90;99.90;;;;;;5070493;28;20047;-69
2023/05/29 04:54:13;;;;;;;7.82;4.43;;;12.90;99.90;;;;;;5056595;28;20141;-69
2023/05/29 04:56:42;;;;;;;8.50;4.88;;;13.00;99.90;;;;;;5066615;28;20187;-69
2023/05/29 04:59:07;;;;;;;7.68;4.47;;;13.20;99.90;;;;;;5069362;28;20024;-70
2023/05/29 05:01:33;;;;;;;7.03;4.65;;;13.20;99.90;;;;;;5071209;28;20082;-69
2023/05/29 05:04:00;;;;;;;8.52;5.38;;;13.40;99.90;;;;;;5069870;28;20021;-69
2023/05/29 05:06:26;;;;;;;9.13;4.97;;;13.50;99.90;;;;;;5071576;28;20070;-69
2023/05/29 05:08:52;;;;;;;7.78;5.10;;;13.60;99.90;;;;;;5070237;28;20485;-69
2023/05/29 05:11:18;;;;;;;11.43;5.20;;;13.60;99.90;;;;;;5070464;28;20467;-69
2023/05/29 05:13:44;;;;;;;9.50;5.15;;;13.70;99.90;;;;;;5070624;28;20116;-69
2023/05/29 05:16:09;;;;;;;10.48;5.70;;;13.90;99.90;;;;;;5075415;28;20036;-69
2023/05/29 05:18:36;;;;;;;10.18;6.07;;;14.00;99.90;;;;;;5051957;28;20124;-69
2023/05/29 05:21:03;;;;;;;10.20;6.07;;;14.20;99.90;;;;;;5070336;28;20032;-68
2023/05/29 05:23:29;;;;;;;12.70;6.35;;;14.40;99.90;;;;;;5070375;28;20436;-68
2023/05/29 05:25:55;;;;;;;11.52;6.00;;;14.40;99.90;;;;;;5070600;28;20029;-69
2023/05/29 05:28:21;;;;;;;12.88;6.38;;;14.50;99.90;;;;;;5069312;28;20051;-69
2023/05/29 05:30:46;;;;;;;9.63;5.60;;;14.60;99.90;;;;;;5075149;28;20467;-68
2023/05/29 05:33:12;;;;;;;11.18;5.88;;;14.80;99.90;;;;;;5048969;28;20025;-68
2023/05/29 05:35:38;;;;;;;8.50;5.38;;;14.90;99.90;;;;;;5070605;28;20488;-69
2023/05/29 05:38:04;;;;;;;10.70;6.15;;;14.90;99.90;;;;;;5069483;28;20135;-68
2023/05/29 05:40:29;;;;;;;9.80;6.03;;;15.00;99.90;;;;;;5066636;28;20027;-69
2023/05/29 05:42:55;;;;;;;12.75;5.68;;;15.10;99.90;;;;;;5070549;28;20028;-69
2023/05/29 05:45:21;;;;;;;9.10;5.30;;;15.20;99.90;;;;;;5073661;28;20442;-69
2023/05/29 05:47:47;;;;;;;8.43;5.55;;;15.30;99.90;;;;;;5074298;28;20066;-69
2023/05/29 05:50:13;;;;;;;10.30;5.43;;;15.40;99.90;;;;;;5071936;28;20124;-69
2023/05/29 05:52:38;;;;;;;11.18;5.72;;;15.50;99.90;;;;;;5071224;28;20104;-69
2023/05/29 05:55:04;;;;;;;11.35;6.15;;;15.60;99.90;;;;;;5081885;28;20036;-69
2023/05/29 05:57:32;;;;;;;9.50;5.50;;;15.80;99.90;;;;;;5077582;28;20043;-69
2023/05/29 06:00:02;;;;;;;11.88;5.05;;;15.90;99.90;;;;;;5072371;28;21863;-69
2023/05/29 06:02:27;;;;;;;12.00;6.28;;;15.90;99.90;;;;;;5070384;28;20440;-69
2023/05/29 06:04:53;;;;;;;11.07;5.55;;;16.10;99.90;;;;;;5064341;28;20044;-69
2023/05/29 06:07:18;;;;;;;14.07;5.85;;;16.20;99.90;;;;;;5080854;28;20040;-69
2023/05/29 06:09:44;;;;;;;9.35;5.68;;;16.20;99.90;;;;;;5073037;28;20029;-69
2023/05/29 06:12:10;;;;;;;18.30;5.85;;;16.40;99.90;;;;;;5073351;28;20035;-69
2023/05/29 06:14:35;;;;;;;11.68;5.15;;;16.50;99.90;;;;;;5073481;28;20025;-69
2023/05/29 06:17:01;;;;;;;9.60;4.90;;;16.50;99.90;;;;;;5072855;28;20479;-69
2023/05/29 06:19:27;;;;;;;11.88;5.28;;;16.60;99.90;;;;;;5065984;28;20032;-69
2023/05/29 06:21:52;;;;;;;9.02;4.70;;;16.60;99.90;;;;;;5073723;28;20381;-69
2023/05/29 06:24:18;;;;;;;8.50;5.75;;;16.60;99.90;;;;;;5077141;28;20045;-69
2023/05/29 06:26:44;;;;;;;10.13;5.85;;;16.70;99.90;;;;;;5076807;28;20024;-70
2023/05/29 06:29:09;;;;;;;9.70;5.82;;;16.90;99.90;;;;;;5078374;28;20445;-70
2023/05/29 06:31:35;;;;;;;9.98;5.78;;;16.90;99.90;;;;;;5076726;28;20027;-70
2023/05/29 06:34:01;;;;;;;9.50;5.50;;;17.00;99.90;;;;;;5072198;28;20108;-70
2023/05/29 06:36:26;;;;;;;9.38;5.18;;;17.10;99.90;;;;;;5070500;28;20091;-70
2023/05/29 06:38:52;;;;;;;8.52;4.93;;;17.10;99.90;;;;;;5063075;28;20034;-69
2023/05/29 06:41:18;;;;;;;11.05;4.97;;;17.20;99.90;;;;;;5073998;28;20078;-70
2023/05/29 06:43:44;;;;;;;8.75;4.57;;;17.30;99.90;;;;;;5064938;28;20507;-71
2023/05/29 06:46:10;;;;;;;7.78;5.07;;;17.40;99.90;;;;;;5072423;28;20033;-69
2023/05/29 06:48:36;;;;;;;9.57;4.75;;;17.70;99.90;;;;;;5072240;28;20024;-69
2023/05/29 06:51:08;;;;;;;11.85;5.05;;;17.70;99.90;;;;;;5071742;28;20051;-69
2023/05/29 06:53:39;;;;;;;10.98;5.47;;;17.70;98.70;;;;;;5057528;28;20072;-69
2023/05/29 06:56:05;;;;;;;13.10;5.30;;;17.70;98.70;;;;;;5062333;28;20083;-69
2023/05/29 06:58:31;;;;;;;9.98;4.95;;;17.80;99.00;;;;;;5061880;28;20029;-69
2023/05/29 07:00:57;;;;;;;8.35;4.88;;;17.80;99.10;;;;;;5061649;28;20470;-69
2023/05/29 07:03:25;;;;;;;8.90;4.57;;;17.90;99.20;;;;;;5060369;28;20021;-69
2023/05/29 07:05:51;;;;;;;8.60;5.22;;;18.10;98.50;;;;;;5049639;28;20093;-70
2023/05/29 07:08:17;;;;;;;12.77;5.30;;;18.30;98.50;;;;;;5063078;28;20457;-69
2023/05/29 07:10:42;;;;;;;8.43;5.03;;;18.40;98.50;;;;;;5060684;28;20029;-70
2023/05/29 07:13:08;;;;;;;11.90;5.88;;;18.50;98.30;;;;;;5055840;28;20056;-70
2023/05/29 07:15:34;;;;;;;9.27;6.18;;;18.60;98.50;;;;;;5066078;28;20690;-70
2023/05/29 07:18:00;;;;;;;10.30;5.68;;;18.70;98.90;;;;;;5063809;28;20025;-69
2023/05/29 07:20:26;;;;;;;10.45;5.32;;;18.70;97.90;;;;;;5068890;28;20036;-70
2023/05/29 07:22:51;;;;;;;10.60;4.95;;;18.80;98.30;;;;;;5062065;28;20033;-71
2023/05/29 07:25:17;;;;;;;10.05;5.20;;;18.80;97.00;;;;;;5056160;28;20111;-70
2023/05/29 07:27:42;;;;;;;8.00;5.95;;;18.90;97.40;;;;;;5060921;28;20377;-71
2023/05/29 07:30:08;;;;;;;9.20;5.40;;;18.90;98.00;;;;;;5059251;28;20029;-74
2023/05/29 07:32:34;;;;;;;8.40;5.10;;;19.10;98.40;;;;;;5069441;28;20060;-74
2023/05/29 07:35:00;;;;;;;10.25;4.43;;;19.20;97.50;;;;;;5066461;28;20454;-73
2023/05/29 07:37:25;;;;;;;8.52;4.35;;;19.30;97.20;;;;;;5066268;28;20025;-72
2023/05/29 07:39:51;;;;;;;10.93;4.75;;;19.40;96.10;;;;;;5058057;28;20032;-73
2023/05/29 07:42:17;;;;;;;7.30;4.75;;;19.40;96.30;;;;;;5064004;28;20549;-74
2023/05/29 07:44:42;;;;;;;7.70;4.30;;;19.50;95.30;;;;;;5068508;28;20036;-73
2023/05/29 07:47:11;;;;;;;7.88;4.70;;;19.60;95.10;;;;;;5056812;28;20466;-72
2023/05/29 07:49:37;;;;;;;12.32;5.53;;;19.70;94.90;;;;;;5054255;28;20036;-72
2023/05/29 07:52:03;;;;;;;8.02;4.93;;;19.80;94.00;;;;;;5050131;28;20115;-73
2023/05/29 07:54:32;;;;;;;8.50;4.65;;;19.80;94.10;;;;;;5053629;28;20052;-72
2023/05/29 07:56:59;;;;;;;8.73;5.05;;;19.90;93.30;;;;;;5055274;28;20037;-70
2023/05/29 07:59:25;;;;;;;10.18;4.43;;;19.90;93.70;;;;;;5051349;28;20043;-71
2023/05/29 08:01:50;;;;;;;6.15;4.28;;;19.90;93.70;;;;;;5054484;28;20028;-67
2023/05/29 08:04:16;;;;;;;6.78;4.38;;;20.00;93.60;;;;;;5053918;28;20056;-70
2023/05/29 08:06:43;;;;;;;7.40;4.72;;;20.10;93.60;;;;;;5052970;28;20033;-69
2023/05/29 08:09:09;;;;;;;11.15;5.45;;;20.30;93.10;;;;;;5045697;28;20439;-71
2023/05/29 08:11:38;;;;;;;7.68;4.68;;;20.40;92.20;;;;;;5048652;28;20043;-73
2023/05/29 08:14:03;;;;;;;9.23;4.60;;;20.40;92.30;;;;;;5061473;28;20052;-73
2023/05/29 08:16:29;;;;;;;7.57;4.63;;;20.50;92.20;;;;;;5058360;28;20427;-73
2023/05/29 08:18:55;;;;;;;7.70;4.70;;;20.60;92.40;;;;;;5048610;28;20111;-72
2023/05/29 08:21:21;;;;;;;8.05;5.47;;;20.60;92.80;;;;;;5052781;28;20039;-69
2023/05/29 08:23:47;;;;;;;8.25;5.18;;;20.70;92.20;;;;;;5047105;28;20108;-70
2023/05/29 08:26:13;;;;;;;6.78;4.40;;;20.80;91.50;;;;;;5065256;28;20107;-72
2023/05/29 08:28:38;;;;;;;9.07;5.05;;;20.80;91.70;;;;;;5057450;28;20043;-73
2023/05/29 08:31:04;;;;;;;9.88;5.55;;;20.80;91.60;;;;;;5038184;28;20172;-73
2023/05/29 08:33:30;;;;;;;11.35;5.63;;;20.90;91.70;;;;;;5048467;28;20042;-75
2023/05/29 08:36:00;;;;;;;8.90;4.72;;;21.10;91.20;;;;;;5059743;28;20029;-74
2023/05/29 08:38:26;;;;;;;10.23;4.60;;;21.10;91.30;;;;;;5052974;28;20033;-72
2023/05/29 08:40:51;;;;;;;9.38;5.03;;;21.10;91.10;;;;;;5048336;28;20039;-71
2023/05/29 08:43:31;;;;;;;10.50;4.78;;;21.30;91.60;;;;;;5048117;28;20029;-72
2023/05/29 08:46:01;;;;;;;6.25;4.38;;;21.40;91.50;;;;;;5054696;28;20024;-69
2023/05/29 08:48:28;;;;;;;5.82;4.57;;;21.50;91.20;;;;;;5050999;28;20029;-69
2023/05/29 08:50:57;;;;;;;9.23;5.70;;;21.70;91.20;;;;;;5056893;28;20048;-69
2023/05/29 08:53:24;;;;;;;8.45;4.97;;;21.80;90.80;;;;;;5069359;28;20025;-69
2023/05/29 08:55:52;;;;;;;7.20;4.13;;;21.90;90.90;;;;;;5060034;28;20024;-69
2023/05/29 08:58:21;;;;;;;9.55;4.93;;;21.90;90.90;;;;;;5069119;28;20017;-69
2023/05/29 09:00:48;;;;;;;7.13;5.07;;;22.00;90.70;;;;;;5065585;28;20032;-69
2023/05/29 09:03:14;;;;;;;12.20;5.22;;;22.00;90.70;;;;;;5075091;28;20051;-69
2023/05/29 09:05:41;;;;;;;10.02;5.05;;;22.10;90.70;;;;;;5070145;28;20420;-70
2023/05/29 09:08:11;;;;;;;10.85;5.32;;;22.20;90.70;;;;;;5068439;28;20504;-69
2023/05/29 09:10:43;;;;;;;9.15;5.20;;;22.30;90.60;;;;;;5050946;28;20039;-69
2023/05/29 09:13:09;;;;;;;11.90;5.30;;;22.30;90.40;;;;;;5069140;28;20024;-69
2023/05/29 09:15:36;;;;;;;8.38;5.05;;;22.30;90.40;;;;;;5074010;28;20032;-69
2023/05/29 09:18:04;;;;;;;7.32;4.60;;;22.30;90.80;;;;;;5065757;28;20436;-69
2023/05/29 09:20:30;;;;;;;7.60;4.15;;;22.50;90.40;;;;;;5071466;28;20036;-68
2023/05/29 09:23:00;;;;;;;17.80;5.68;;;22.60;90.40;;;;;;5072956;28;20106;-69
2023/05/29 09:25:30;;;;;;;7.93;4.95;;;22.80;90.00;;;;;;5079807;28;20020;-68
2023/05/29 09:28:02;;;;;;;6.88;4.38;;;22.80;89.00;;;;;;5072690;28;20032;-69
2023/05/29 09:30:39;;;;;;;6.72;4.80;;;22.80;90.00;;;;;;5063382;28;20071;-69
2023/05/29 09:33:06;;;;;;;7.88;4.75;;;22.90;89.90;;;;;;5072531;28;20449;-70
2023/05/29 09:35:40;;;;;;;8.73;5.20;;;23.10;88.70;;;;;;5073637;28;20108;-69
2023/05/29 09:38:07;;;;;;;8.07;4.75;;;23.30;88.00;;;;;;5062490;28;20025;-70
2023/05/29 09:40:34;;;;;;;10.50;4.97;;;23.40;88.80;;;;;;5072555;28;20039;-69
2023/05/29 09:43:13;;;;;;;10.07;5.50;;;23.60;88.50;;;;;;5074999;28;20056;-70
2023/05/29 09:45:44;;;;;;;9.40;4.88;;;23.70;86.70;;;;;;5073241;28;20435;-70
2023/05/29 09:48:17;;;;;;;7.28;5.05;;;23.70;85.90;;;;;;5072111;28;20381;-72
2023/05/29 09:50:57;;;;;;;7.85;4.97;;;23.60;85.80;;;;;;5064451;28;20109;-70
2023/05/29 09:53:28;;;;;;;8.52;5.00;;;23.70;86.80;;;;;;5075793;28;20033;-70
2023/05/29 09:55:58;;;;;;;11.13;5.15;;;23.70;85.90;;;;;;5050775;28;20041;-70
2023/05/29 09:58:24;;;;;;;;;;;23.80;85.20;;;;;;5076341;28;20062;-70
2023/05/29 10:00:51;;;;;;;11.30;5.80;;;23.90;84.90;;;;;;5080622;28;19947;-71
2023/05/29 10:03:18;;;;;;;8.85;5.00;;;24.00;83.80;;;;;;5078987;28;20094;-72
2023/05/29 10:05:50;;;;;;;7.05;4.40;;;24.10;83.80;;;;;;5081423;28;20028;-74
2023/05/29 10:08:18;;;;;;;7.78;4.70;;;24.20;83.50;;;;;;5075200;28;20669;-71
2023/05/29 10:10:47;;;;;;;12.90;9.52;;;24.30;83.50;;;;;;5078469;28;20074;-73
2023/05/29 10:13:14;;;;;;;6.50;4.93;;;24.50;81.70;;;;;;5076422;28;20028;-70
2023/05/29 10:15:45;;;;;;;13.45;4.53;;;24.60;81.40;;;;;;5077922;28;20024;-72
2023/05/29 10:18:38;;;;;;;8.80;4.72;;;24.80;81.70;;;;;;5075606;28;20111;-70
2023/05/29 10:21:05;;;;;;;7.97;4.38;;;25.10;80.30;;;;;;5080913;28;20426;-71
2023/05/29 10:23:33;;;;;;;8.80;4.38;;;25.20;78.00;;;;;;5080067;28;20111;-70
2023/05/29 10:26:15;;;;;;;7.82;4.72;;;25.10;77.90;;;;;;5078857;28;20111;-75
2023/05/29 10:29:04;;;;;;;9.23;4.53;;;25.10;76.00;;;;;;5074753;28;20480;-72
2023/05/29 10:31:43;;;;;;;5.50;3.83;;;25.20;75.80;;;;;;5075911;28;20119;-71
2023/05/29 10:34:33;;;;;;;7.25;4.35;;;25.40;74.80;;;;;;5084126;28;20031;-71
2023/05/29 10:37:28;;;;;;;8.10;4.40;;;25.50;75.30;;;;;;5079099;28;20034;-73
2023/05/29 10:39:53;;;;;;;9.50;4.57;;;25.70;72.80;;;;;;5062409;28;20497;-76
2023/05/29 10:42:42;;;;;;;6.72;3.95;;;25.40;72.50;;;;;;5082591;28;20028;-72
2023/05/29 10:45:10;;;;;;;7.60;4.40;;;25.40;73.40;;;;;;5077813;28;20538;-74
2023/05/29 10:47:35;;;;;;;8.80;4.35;;;25.60;72.20;;;;;;5079669;28;20035;-69
2023/05/29 10:50:02;;;;;;;12.45;4.45;;;25.60;72.20;;;;;;5077296;28;20039;-72
2023/05/29 10:52:35;;;;;;;8.00;4.97;;;25.60;71.90;;;;;;5076683;28;20024;-71
2023/05/29 10:55:04;;;;;;;7.75;4.65;;;25.40;71.40;;;;;;5077282;28;20025;-76
2023/05/29 10:57:35;;;;;;;9.43;4.18;;;25.50;71.40;;;;;;5070552;28;20541;-77
2023/05/29 11:00:07;;;;;;;12.15;3.85;;;25.70;70.50;;;;;;5067820;28;20032;-72
2023/05/29 11:02:37;;;;;;;7.03;3.75;;;25.40;70.30;;;;;;5054591;28;20033;-69
2023/05/29 11:05:19;;;;;;;7.50;4.25;;;25.40;71.20;;;;;;5086945;28;20099;-69
2023/05/29 11:07:53;;;;;;;9.60;4.10;;;25.50;70.60;;;;;;5075224;28;20039;-77
2023/05/29 11:10:42;;;;;;;9.65;3.80;;;25.40;70.80;;;;;;5071787;28;20346;-79
2023/05/29 11:13:08;;;;;;;4.93;3.90;;;25.40;70.30;;;;;;5077435;28;20457;-77
2023/05/29 11:15:33;;;;;;;9.40;4.38;;;25.50;69.80;;;;;;5044192;28;20023;-74
2023/05/29 11:18:06;;;;;;;8.98;4.90;;;25.50;69.10;;;;;;5078860;28;20039;-75
2023/05/29 11:20:57;;;;;;;11.50;4.70;;;25.50;69.00;;;;;;5078546;28;20023;-76
2023/05/29 11:23:25;;;;;;;8.55;4.07;;;25.40;69.20;;;;;;5082401;28;20024;-78
2023/05/29 11:25:51;;;;;;;6.78;3.65;;;25.40;68.40;;;;;;5082920;28;20032;-81
2023/05/29 11:28:16;;;;;;;11.93;5.28;;;25.40;68.60;;;;;;5079463;28;20033;-69
2023/05/29 11:30:43;;;;;;;8.50;4.03;;;25.50;69.80;;;;;;5081163;28;20024;-75
2023/05/29 11:33:15;;;;;;;10.15;3.92;;;25.50;68.50;;;;;;5078231;28;20047;-76
2023/05/29 11:35:43;;;;;;;5.15;3.88;;;25.70;68.50;;;;;;5074352;28;20036;-78
2023/05/29 11:38:09;;;;;;;10.98;4.30;;;26.00;67.70;;;;;;5077099;28;20034;-76
2023/05/29 11:40:38;;;;;;;6.50;3.58;;;26.10;66.90;;;;;;5082207;28;20100;-84
2023/05/29 11:43:03;;;;;;;6.30;4.20;;;26.20;68.60;;;;;;5079346;28;20107;-73
2023/05/29 11:45:33;;;;;;;8.70;4.35;;;26.40;66.80;;;;;;5081877;28;20095;-73
2023/05/29 11:48:02;;;;;;;8.02;4.25;;;26.50;66.40;;;;;;5081617;28;20540;-74
2023/05/29 11:50:30;;;;;;;7.43;4.47;;;26.50;65.50;;;;;;5070696;28;20122;-74
2023/05/29 11:52:57;;;;;;;7.25;3.88;;;26.40;64.80;;;;;;5071958;28;20027;-73
2023/05/29 11:55:24;;;;;;;7.38;3.72;;;26.40;63.90;;;;;;5061868;28;20040;-71
2023/05/29 11:57:51;;;;;;;6.70;4.00;;;26.50;63.80;;;;;;5064263;28;20086;-70
2023/05/29 12:00:19;;;;;;;6.22;3.42;;;26.60;63.40;;;;;;5071460;28;20027;-72
2023/05/29 12:02:46;;;;;;;5.07;3.70;;;26.70;64.40;;;;;;5052520;28;20059;-71
2023/05/29 12:05:18;;;;;;;8.38;3.70;;;27.00;63.50;;;;;;5069285;28;20397;-70
2023/05/29 12:08:04;;;;;;;7.90;3.78;;;27.10;63.00;;;;;;5068625;28;20401;-70
2023/05/29 12:10:29;;;;;;;5.55;3.47;;;27.10;62.10;;;;;;5067281;28;20031;-71
2023/05/29 12:12:57;;;;;;;6.07;3.50;;;27.10;62.70;;;;;;5067609;28;20029;-70
2023/05/29 12:15:23;;;;;;;5.78;3.65;;;27.10;61.30;;;;;;5069259;28;20017;-71
2023/05/29 12:17:50;;;;;;;4.10;3.58;;;26.90;61.30;;;;;;5067680;28;20044;-69
2023/05/29 12:20:16;;;;;;;6.63;3.50;;;26.90;61.50;;;;;;5069407;28;20526;-72
2023/05/29 12:22:43;;;;;;;7.47;4.22;;;26.80;61.30;;;;;;5070574;28;20107;-69
2023/05/29 12:25:11;;;;;;;6.25;3.60;;;26.80;60.80;;;;;;5068826;28;20358;-70
2023/05/29 12:27:42;;;;;;;5.35;3.85;;;26.50;60.80;;;;;;5072539;28;20404;-69
2023/05/29 12:30:10;;;;;;;5.38;3.70;;;26.30;60.50;;;;;;5047524;28;20350;-69
2023/05/29 12:32:40;;;;;;;6.75;3.40;;;26.30;61.00;;;;;;5069147;28;20028;-71
2023/05/29 12:35:17;;;;;;;8.32;3.90;;;26.30;60.20;;;;;;5069458;28;20056;-71
2023/05/29 12:37:47;;;;;;;4.78;3.35;;;26.50;60.90;;;;;;5069553;28;20115;-73
2023/05/29 12:40:22;;;;;;;9.93;3.70;;;26.80;60.10;;;;;;5067913;28;20029;-71
2023/05/29 12:42:48;;;;;;;5.13;3.10;;;26.70;58.50;;;;;;5070880;28;20531;-72
2023/05/29 12:45:14;;;;;;;4.25;3.00;;;26.60;60.70;;;;;;5079302;28;20040;-70
2023/05/29 12:48:07;;;;;;;5.38;3.80;;;26.80;60.20;;;;;;5069327;28;20053;-71
2023/05/29 12:50:34;;;;;;;4.45;3.38;;;27.10;58.30;;;;;;5065333;28;20520;-76
2023/05/29 12:53:05;;;;;;;5.18;3.63;;;27.40;57.80;;;;;;5069215;28;20046;-73
2023/05/29 12:55:36;;;;;;;8.32;3.88;;;27.60;55.00;;;;;;5057500;28;20020;-69
2023/05/29 12:58:02;;;;;;;4.13;2.90;;;27.20;54.20;;;;;;5067459;28;20922;-71